Time;durP1;ratioP1;P1;durP2;ratioP2;P2;SDS_P1;SDS_P2;PMS_P1;PMS_P2;Temp;Humidity;BMP_temperature;BMP_pressure;BME280_temperature;BME280_humidity;BME280_pressure;Samples;Min_cycle;Max_cycle;Signal;HPM_P1;HPM_P2
2023/09/08 00:00:05;;;;;;;12.73;9.02;;;17.40;96.20;;;;;;5045275;28;20437;-67
2023/09/08 00:02:30;;;;;;;11.98;8.07;;;17.30;96.30;;;;;;5038971;28;20393;-67
2023/09/08 00:04:56;;;;;;;10.27;8.18;;;17.20;96.50;;;;;;5034821;28;20062;-67
2023/09/08 00:07:21;;;;;;;12.13;8.48;;;17.20;96.60;;;;;;5044824;28;20120;-67
2023/09/08 00:09:47;;;;;;;13.40;8.93;;;17.20;96.90;;;;;;5048188;28;20029;-67
2023/09/08 00:12:13;;;;;;;10.15;8.07;;;17.10;96.90;;;;;;5049131;28;20045;-67
2023/09/08 00:14:38;;;;;;;12.02;9.38;;;17.10;97.10;;;;;;5027030;28;20040;-67
2023/09/08 00:17:04;;;;;;;13.80;8.77;;;17.00;97.40;;;;;;5047790;28;20069;-66
2023/09/08 00:19:30;;;;;;;11.20;8.70;;;16.90;97.60;;;;;;5044387;28;20385;-67
2023/09/08 00:21:56;;;;;;;14.23;9.10;;;16.90;97.90;;;;;;5045695;28;20090;-67
2023/09/08 00:24:22;;;;;;;12.18;9.48;;;16.80;98.10;;;;;;5049088;28;20486;-66
2023/09/08 00:26:47;;;;;;;12.23;9.20;;;16.70;98.40;;;;;;5046125;28;20040;-67
2023/09/08 00:29:13;;;;;;;10.88;8.80;;;16.70;98.80;;;;;;5046109;28;20037;-67
2023/09/08 00:31:38;;;;;;;13.77;9.43;;;16.60;99.30;;;;;;5054810;28;20173;-67
2023/09/08 00:34:04;;;;;;;12.13;9.35;;;16.50;99.20;;;;;;5052384;28;20044;-67
2023/09/08 00:36:29;;;;;;;12.90;9.38;;;16.40;99.30;;;;;;5037810;28;20036;-67
2023/09/08 00:38:55;;;;;;;13.63;9.48;;;16.40;99.60;;;;;;5046231;28;20051;-69
2023/09/08 00:41:21;;;;;;;11.57;9.43;;;16.30;99.90;;;;;;5040800;28;20073;-66
2023/09/08 00:43:46;;;;;;;17.60;10.15;;;16.30;99.90;;;;;;5032137;28;20126;-67
2023/09/08 00:46:12;;;;;;;13.65;9.20;;;16.30;99.90;;;;;;5032918;28;20063;-67
2023/09/08 00:48:38;;;;;;;12.45;9.52;;;16.20;99.90;;;;;;5034505;28;20043;-67
2023/09/08 00:51:05;;;;;;;14.15;9.48;;;16.20;99.90;;;;;;5036665;28;20042;-67
2023/09/08 00:53:31;;;;;;;14.48;9.35;;;16.10;99.90;;;;;;5046209;28;20060;-67
2023/09/08 00:55:58;;;;;;;14.05;9.73;;;16.10;99.90;;;;;;5041219;28;20037;-67
2023/09/08 00:58:24;;;;;;;12.90;10.32;;;16.10;99.90;;;;;;5034672;28;20055;-67
2023/09/08 01:00:50;;;;;;;15.05;10.07;;;16.00;99.90;;;;;;5026614;28;20047;-67
2023/09/08 01:03:16;;;;;;;13.50;10.20;;;16.00;99.90;;;;;;5027384;28;20124;-67
2023/09/08 01:05:41;;;;;;;13.13;10.25;;;16.00;99.90;;;;;;5039605;28;20036;-66
2023/09/08 01:08:08;;;;;;;13.85;10.10;;;15.90;99.90;;;;;;5031915;28;20326;-66
2023/09/08 01:10:34;;;;;;;10.98;9.38;;;15.90;99.90;;;;;;5029878;28;20128;-67
2023/09/08 01:13:00;;;;;;;16.13;10.57;;;15.90;99.90;;;;;;5039604;28;20053;-67
2023/09/08 01:15:26;;;;;;;16.85;10.55;;;15.80;99.90;;;;;;5027821;28;20037;-67
2023/09/08 01:17:51;;;;;;;12.98;10.18;;;15.80;99.90;;;;;;5037711;28;20072;-67
2023/09/08 01:20:26;;;;;;;16.10;10.73;;;15.80;99.90;;;;;;5044112;28;20040;-67
2023/09/08 01:23:36;;;;;;;14.43;10.45;;;15.80;99.90;;;;;;5062247;28;20040;-67
2023/09/08 01:26:10;;;;;;;13.00;9.98;;;15.70;99.90;;;;;;5048606;28;20203;-67
2023/09/08 01:28:38;;;;;;;12.80;9.80;;;15.70;99.90;;;;;;5044646;28;20056;-67
2023/09/08 01:31:04;;;;;;;14.95;10.82;;;15.70;99.90;;;;;;5038797;28;20117;-67
2023/09/08 01:33:30;;;;;;;15.85;11.15;;;15.60;99.90;;;;;;5045708;28;20044;-67
2023/09/08 01:35:55;;;;;;;13.80;10.60;;;15.60;99.90;;;;;;5026029;28;20082;-67
2023/09/08 01:38:21;;;;;;;16.67;11.13;;;15.60;99.90;;;;;;5044479;28;20116;-67
2023/09/08 01:40:47;;;;;;;14.30;9.75;;;15.60;99.90;;;;;;5028231;28;20045;-68
2023/09/08 01:43:13;;;;;;;14.80;11.15;;;15.50;99.90;;;;;;5040237;28;20956;-67
2023/09/08 01:45:38;;;;;;;14.32;10.55;;;15.50;99.90;;;;;;5035648;28;20049;-67
2023/09/08 01:48:04;;;;;;;16.00;11.27;;;15.40;99.90;;;;;;5040660;28;20029;-67
2023/09/08 01:50:29;;;;;;;15.57;11.25;;;15.40;99.90;;;;;;5047462;28;20041;-67
2023/09/08 01:52:56;;;;;;;15.93;10.93;;;15.30;99.90;;;;;;5044544;28;20040;-67
2023/09/08 01:55:21;;;;;;;15.07;11.10;;;15.30;99.90;;;;;;5027560;28;20048;-66
2023/09/08 01:57:47;;;;;;;15.30;10.43;;;15.30;99.90;;;;;;5047750;28;20032;-67
2023/09/08 02:00:13;;;;;;;13.48;10.48;;;15.40;99.90;;;;;;5041062;28;20049;-66
2023/09/08 02:02:39;;;;;;;13.65;10.70;;;15.30;99.90;;;;;;5038732;28;20080;-67
2023/09/08 02:05:05;;;;;;;16.58;11.73;;;15.30;99.90;;;;;;5036602;28;20053;-67
2023/09/08 02:07:31;;;;;;;14.73;10.90;;;15.30;99.90;;;;;;5045683;28;20155;-67
2023/09/08 02:09:56;;;;;;;13.70;10.02;;;15.20;99.90;;;;;;5056022;28;20084;-67
2023/09/08 02:12:22;;;;;;;13.63;10.07;;;15.20;99.90;;;;;;5037688;28;20180;-66
2023/09/08 02:14:48;;;;;;;14.57;10.05;;;15.20;99.90;;;;;;5044196;28;20049;-67
2023/09/08 02:17:13;;;;;;;15.73;10.40;;;15.20;99.90;;;;;;5035631;28;20561;-67
2023/09/08 02:19:39;;;;;;;13.45;9.23;;;15.20;99.90;;;;;;5043357;28;20044;-67
2023/09/08 02:22:04;;;;;;;12.65;9.85;;;15.10;99.90;;;;;;5046823;28;20045;-67
2023/09/08 02:24:30;;;;;;;14.07;9.95;;;15.10;99.90;;;;;;5044904;28;20048;-67
2023/09/08 02:26:55;;;;;;;12.23;9.45;;;15.10;99.90;;;;;;5042911;28;20076;-67
2023/09/08 02:29:22;;;;;;;13.38;9.88;;;15.10;99.90;;;;;;5044436;28;20126;-67
2023/09/08 02:31:48;;;;;;;14.75;9.73;;;15.10;99.90;;;;;;5047669;28;20420;-67
2023/09/08 02:34:13;;;;;;;14.38;9.35;;;15.00;99.90;;;;;;5043640;28;20072;-67
2023/09/08 02:36:39;;;;;;;15.68;10.60;;;15.00;99.90;;;;;;5039753;28;20080;-67
2023/09/08 02:39:05;;;;;;;13.75;10.50;;;14.90;99.90;;;;;;5044673;28;20113;-66
2023/09/08 02:41:31;;;;;;;15.07;10.15;;;14.90;99.90;;;;;;5046509;28;20105;-67
2023/09/08 02:43:56;;;;;;;12.18;10.57;;;14.90;99.90;;;;;;5015446;28;20120;-66
2023/09/08 02:46:22;;;;;;;13.90;10.02;;;14.80;99.90;;;;;;5029550;28;20051;-67
2023/09/08 02:48:47;;;;;;;17.88;11.57;;;14.80;99.90;;;;;;5024471;28;20045;-67
2023/09/08 02:51:13;;;;;;;17.25;10.45;;;14.80;99.90;;;;;;5042506;28;20041;-67
2023/09/08 02:53:38;;;;;;;14.60;11.05;;;14.70;99.90;;;;;;5038381;28;20032;-67
2023/09/08 02:56:05;;;;;;;16.30;11.70;;;14.70;99.90;;;;;;5022180;28;20441;-67
2023/09/08 02:58:33;;;;;;;13.45;11.13;;;14.70;99.90;;;;;;5046026;28;20037;-67
2023/09/08 03:01:14;;;;;;;14.15;10.70;;;14.60;99.90;;;;;;5032531;28;20119;-67
2023/09/08 03:03:43;;;;;;;15.82;10.50;;;14.60;99.90;;;;;;5039253;28;20127;-67
2023/09/08 03:06:09;;;;;;;14.75;10.82;;;14.60;99.90;;;;;;5027327;28;20067;-67
2023/09/08 03:08:36;;;;;;;16.88;10.95;;;14.60;99.90;;;;;;5046808;28;20046;-67
2023/09/08 03:11:03;;;;;;;14.52;10.80;;;14.60;99.90;;;;;;5039687;28;20108;-67
2023/09/08 03:13:29;;;;;;;15.73;11.35;;;14.50;99.90;;;;;;5039223;28;20286;-67
2023/09/08 03:15:55;;;;;;;15.35;10.88;;;14.60;99.90;;;;;;5031586;28;20158;-70
2023/09/08 03:18:21;;;;;;;15.57;11.63;;;14.50;99.90;;;;;;5041958;28;20098;-67
2023/09/08 03:20:50;;;;;;;16.17;11.43;;;14.60;99.90;;;;;;5048308;28;20052;-67
2023/09/08 03:23:16;;;;;;;17.20;11.95;;;14.60;99.90;;;;;;5035760;28;20106;-67
2023/09/08 03:25:42;;;;;;;18.33;11.52;;;14.70;99.90;;;;;;5028986;28;20409;-67
2023/09/08 03:28:08;;;;;;;19.05;11.90;;;14.70;99.90;;;;;;5055839;28;20036;-67
2023/09/08 03:30:33;;;;;;;16.40;11.98;;;14.60;99.90;;;;;;5045674;28;20108;-67
2023/09/08 03:32:59;;;;;;;17.17;12.80;;;14.70;99.90;;;;;;5063112;28;20033;-67
2023/09/08 03:35:24;;;;;;;18.13;12.60;;;14.70;99.90;;;;;;5039938;28;20045;-67
2023/09/08 03:37:50;;;;;;;17.27;13.65;;;14.80;99.90;;;;;;5038121;28;20066;-67
2023/09/08 03:40:15;;;;;;;17.85;12.88;;;14.80;99.90;;;;;;5029664;28;20072;-67
2023/09/08 03:42:44;;;;;;;19.30;13.93;;;14.80;99.90;;;;;;5031377;28;20076;-67
2023/09/08 03:45:09;;;;;;;18.38;12.93;;;14.80;99.90;;;;;;5035596;28;20139;-67
2023/09/08 03:47:35;;;;;;;19.13;13.07;;;14.90;99.90;;;;;;5030101;28;20494;-67
2023/09/08 03:50:01;;;;;;;17.85;12.80;;;14.90;99.90;;;;;;5035349;28;20033;-67
2023/09/08 03:52:26;;;;;;;18.73;12.50;;;14.90;99.90;;;;;;5030381;28;20857;-71
2023/09/08 03:54:52;;;;;;;20.38;13.20;;;14.90;99.90;;;;;;5034461;28;20044;-67
2023/09/08 03:57:18;;;;;;;20.55;13.63;;;14.90;99.90;;;;;;5046638;28;20036;-67
2023/09/08 03:59:44;;;;;;;20.65;13.00;;;14.90;99.90;;;;;;5055504;28;20184;-67
2023/09/08 04:02:09;;;;;;;18.42;12.65;;;14.90;99.90;;;;;;5034807;28;20123;-67
2023/09/08 04:04:35;;;;;;;19.23;12.98;;;14.80;99.90;;;;;;5035002;28;20045;-67
2023/09/08 04:07:00;;;;;;;18.20;12.93;;;14.80;99.90;;;;;;5032967;28;20041;-66
2023/09/08 04:09:27;;;;;;;16.52;12.45;;;14.70;99.90;;;;;;5049260;28;20036;-67
2023/09/08 04:11:54;;;;;;;19.48;12.68;;;14.70;99.90;;;;;;5039561;28;20040;-69
2023/09/08 04:14:23;;;;;;;19.63;12.82;;;14.70;99.90;;;;;;5038785;28;20151;-66
2023/09/08 04:16:48;;;;;;;18.25;13.35;;;14.60;99.90;;;;;;5043196;28;20357;-67
2023/09/08 04:19:14;;;;;;;18.80;12.90;;;14.60;99.90;;;;;;5041255;28;20045;-67
2023/09/08 04:21:41;;;;;;;19.08;13.10;;;14.50;99.90;;;;;;5030398;28;20840;-67
2023/09/08 04:24:07;;;;;;;15.93;11.85;;;14.60;99.90;;;;;;5044081;28;20040;-67
2023/09/08 04:26:32;;;;;;;17.00;13.18;;;14.50;99.90;;;;;;5036330;28;20511;-67
2023/09/08 04:28:58;;;;;;;19.55;12.50;;;14.50;99.90;;;;;;5043108;28;20512;-67
2023/09/08 04:31:23;;;;;;;15.57;12.10;;;14.50;99.90;;;;;;5038288;28;20033;-67
2023/09/08 04:33:49;;;;;;;17.25;12.65;;;14.50;99.90;;;;;;5038978;28;20156;-67
2023/09/08 04:36:15;;;;;;;18.30;13.15;;;14.40;99.90;;;;;;5032798;28;20539;-67
2023/09/08 04:38:41;;;;;;;18.33;12.02;;;14.40;99.90;;;;;;5035213;28;20041;-67
2023/09/08 04:41:07;;;;;;;19.15;12.70;;;14.40;99.90;;;;;;5044873;28;20040;-67
2023/09/08 04:43:32;;;;;;;17.90;13.05;;;14.40;99.90;;;;;;5038932;28;20502;-66
2023/09/08 04:45:58;;;;;;;18.17;13.05;;;14.40;99.90;;;;;;5036797;28;20053;-67
2023/09/08 04:48:24;;;;;;;19.45;12.82;;;14.40;99.90;;;;;;5044197;28;20039;-67
2023/09/08 04:50:51;;;;;;;19.67;13.73;;;14.40;99.90;;;;;;5030593;28;20353;-67
2023/09/08 04:53:16;;;;;;;18.20;13.80;;;14.30;99.90;;;;;;5031621;28;20033;-67
2023/09/08 04:55:43;;;;;;;20.33;13.38;;;14.40;99.90;;;;;;5030057;28;20037;-67
2023/09/08 04:58:08;;;;;;;20.40;14.18;;;14.40;99.90;;;;;;5040904;28;20036;-67
2023/09/08 05:00:34;;;;;;;18.98;13.25;;;14.40;99.90;;;;;;5044923;28;20550;-66
2023/09/08 05:02:59;;;;;;;19.33;14.05;;;14.50;99.90;;;;;;5017693;28;20472;-67
2023/09/08 05:05:25;;;;;;;22.80;14.05;;;14.50;99.90;;;;;;5025947;28;20136;-67
2023/09/08 05:07:53;;;;;;;19.67;13.85;;;14.50;99.90;;;;;;5032579;28;20501;-67
2023/09/08 05:10:19;;;;;;;16.85;12.93;;;14.50;99.90;;;;;;5032424;28;20072;-67
2023/09/08 05:12:44;;;;;;;18.83;13.52;;;14.40;99.90;;;;;;5049179;28;20044;-67
2023/09/08 05:15:14;;;;;;;19.83;13.50;;;14.40;99.90;;;;;;5033466;28;20053;-67
2023/09/08 05:17:40;;;;;;;20.85;13.73;;;14.40;99.90;;;;;;5033323;28;20151;-67
2023/09/08 05:20:06;;;;;;;18.08;13.45;;;14.40;99.90;;;;;;5030782;28;20454;-67
2023/09/08 05:22:32;;;;;;;17.70;13.90;;;14.40;99.90;;;;;;5031147;28;20499;-67
2023/09/08 05:24:58;;;;;;;19.05;13.48;;;14.40;99.90;;;;;;5033943;28;20037;-67
2023/09/08 05:27:24;;;;;;;19.38;13.70;;;14.40;99.90;;;;;;5036741;28;20082;-68
2023/09/08 05:29:49;;;;;;;19.83;14.00;;;14.50;99.90;;;;;;5033434;28;20122;-68
2023/09/08 05:32:15;;;;;;;19.02;13.82;;;14.50;99.90;;;;;;5044520;28;20037;-68
2023/09/08 05:34:40;;;;;;;18.75;13.50;;;14.50;99.90;;;;;;5034814;28;20393;-67
2023/09/08 05:37:06;;;;;;;21.70;14.35;;;14.50;99.90;;;;;;5037234;28;20052;-67
2023/09/08 05:39:32;;;;;;;18.67;14.15;;;14.60;99.90;;;;;;5042712;28;20041;-68
2023/09/08 05:41:57;;;;;;;21.02;14.07;;;14.60;99.90;;;;;;5038769;28;20072;-68
2023/09/08 05:44:25;;;;;;;19.73;14.68;;;14.70;99.90;;;;;;5034867;28;20045;-67
2023/09/08 05:46:50;;;;;;;18.70;14.18;;;14.70;99.90;;;;;;5041512;28;20232;-68
2023/09/08 05:49:17;;;;;;;20.02;14.60;;;14.70;99.90;;;;;;5045856;28;20449;-67
2023/09/08 05:51:43;;;;;;;20.60;14.23;;;14.80;99.90;;;;;;5044161;28;20458;-67
2023/09/08 05:54:09;;;;;;;20.10;14.25;;;14.90;99.90;;;;;;5041954;28;20037;-67
2023/09/08 05:56:38;;;;;;;21.75;14.30;;;14.90;99.90;;;;;;5049018;28;20033;-68
2023/09/08 05:59:03;;;;;;;21.40;14.07;;;14.90;99.90;;;;;;5041538;28;20091;-66
2023/09/08 06:01:30;;;;;;;22.35;14.43;;;15.00;99.90;;;;;;5033285;28;20049;-67
2023/09/08 06:03:56;;;;;;;21.92;15.38;;;15.10;99.90;;;;;;5043539;28;20073;-68
2023/09/08 06:06:23;;;;;;;22.98;14.63;;;15.10;99.90;;;;;;5042025;28;20045;-67
2023/09/08 06:08:48;;;;;;;20.05;14.15;;;15.20;99.90;;;;;;5044245;28;20135;-68
2023/09/08 06:11:14;;;;;;;19.55;13.88;;;15.40;99.90;;;;;;5043928;28;20063;-68
2023/09/08 06:13:40;;;;;;;18.67;14.02;;;15.40;99.90;;;;;;5042818;28;20041;-67
2023/09/08 06:16:05;;;;;;;19.30;14.43;;;15.50;99.90;;;;;;5029742;28;20124;-68
2023/09/08 06:18:31;;;;;;;23.40;14.68;;;15.60;99.90;;;;;;5045816;28;20064;-67
2023/09/08 06:20:57;;;;;;;19.75;13.98;;;15.70;99.90;;;;;;5045632;28;20124;-67
2023/09/08 06:23:22;;;;;;;20.00;14.07;;;15.90;99.90;;;;;;5041928;28;20041;-68
2023/09/08 06:25:49;;;;;;;19.70;13.95;;;16.00;99.90;;;;;;5040161;28;20075;-68
2023/09/08 06:28:15;;;;;;;19.48;13.25;;;16.10;99.90;;;;;;5043407;28;20127;-68
2023/09/08 06:30:41;;;;;;;18.25;13.05;;;16.30;99.90;;;;;;5045505;28;20116;-68
2023/09/08 06:33:08;;;;;;;19.25;13.80;;;16.50;99.90;;;;;;5046932;28;20059;-68
2023/09/08 06:35:33;;;;;;;19.98;13.10;;;16.80;99.90;;;;;;5036547;28;20037;-69
2023/09/08 06:38:00;;;;;;;18.30;12.77;;;17.00;99.90;;;;;;5030161;28;20073;-67
2023/09/08 06:40:25;;;;;;;16.77;12.65;;;17.30;99.90;;;;;;5041653;28;20091;-68
2023/09/08 06:42:51;;;;;;;17.13;12.48;;;17.60;99.90;;;;;;5045645;28;20397;-68
2023/09/08 06:45:17;;;;;;;13.88;11.23;;;17.90;99.90;;;;;;5044353;28;20096;-67
2023/09/08 06:47:43;;;;;;;16.27;12.18;;;18.10;99.90;;;;;;5045599;28;20037;-68
2023/09/08 06:50:09;;;;;;;14.68;10.93;;;18.40;99.90;;;;;;5042330;28;20029;-69
2023/09/08 06:52:35;;;;;;;14.63;11.88;;;18.60;99.90;;;;;;5043369;28;20404;-70
2023/09/08 06:55:01;;;;;;;13.20;11.15;;;18.90;99.90;;;;;;5045550;28;20110;-69
2023/09/08 06:57:27;;;;;;;14.60;11.07;;;19.10;99.90;;;;;;5049417;28;20044;-69
2023/09/08 06:59:52;;;;;;;12.52;10.98;;;19.30;99.90;;;;;;5045007;28;20051;-68
2023/09/08 07:02:18;;;;;;;14.93;10.75;;;19.50;99.90;;;;;;5041296;28;20267;-69
2023/09/08 07:04:43;;;;;;;13.25;10.43;;;19.70;99.90;;;;;;5047013;28;20059;-69
2023/09/08 07:07:10;;;;;;;13.60;10.23;;;20.00;99.90;;;;;;5043754;28;20033;-68
2023/09/08 07:09:36;;;;;;;11.88;9.63;;;20.20;99.90;;;;;;5045023;28;20041;-68
2023/09/08 07:12:06;;;;;;;12.48;9.32;;;20.50;99.60;;;;;;5047162;28;20044;-68
2023/09/08 07:14:32;;;;;;;11.73;9.60;;;20.60;98.10;;;;;;5044459;28;20049;-69
2023/09/08 07:16:58;;;;;;;12.88;9.63;;;20.90;96.90;;;;;;5042783;28;20125;-68
2023/09/08 07:19:23;;;;;;;12.68;9.23;;;21.10;95.90;;;;;;5037475;28;20045;-69
2023/09/08 07:21:49;;;;;;;10.20;8.90;;;21.20;94.80;;;;;;5042873;28;20045;-70
2023/09/08 07:24:14;;;;;;;14.02;9.05;;;21.30;93.80;;;;;;5039994;28;20053;-66
2023/09/08 07:26:40;;;;;;;12.68;9.35;;;21.50;93.00;;;;;;5044932;28;20041;-69
2023/09/08 07:29:06;;;;;;;11.48;9.32;;;21.70;92.30;;;;;;5046014;28;20029;-68
2023/09/08 07:31:31;;;;;;;11.10;8.90;;;21.90;91.50;;;;;;5047492;28;20441;-68
2023/09/08 07:33:57;;;;;;;13.90;9.05;;;22.10;90.90;;;;;;5043696;28;20569;-70
2023/09/08 07:36:22;;;;;;;10.73;9.40;;;22.20;90.30;;;;;;5049392;28;20041;-68
2023/09/08 07:38:48;;;;;;;11.00;8.48;;;22.40;89.60;;;;;;5046206;28;20032;-68
2023/09/08 07:41:14;;;;;;;10.95;8.80;;;22.60;88.70;;;;;;5045790;28;20469;-69
2023/09/08 07:43:40;;;;;;;13.65;8.10;;;22.70;87.20;;;;;;5045060;28;20052;-69
2023/09/08 07:46:07;;;;;;;9.27;7.88;;;23.10;87.10;;;;;;5031672;28;20037;-69
2023/09/08 07:48:33;;;;;;;10.18;8.55;;;23.30;86.20;;;;;;5043029;28;20728;-68
2023/09/08 07:51:00;;;;;;;9.07;8.18;;;23.30;85.00;;;;;;5050286;28;20037;-69
2023/09/08 07:53:26;;;;;;;8.90;7.63;;;23.20;84.30;;;;;;5036539;28;20154;-70
2023/09/08 07:55:51;;;;;;;8.60;7.68;;;23.20;83.50;;;;;;5039898;28;20128;-69
2023/09/08 07:58:17;;;;;;;8.57;6.93;;;23.20;83.20;;;;;;5045886;28;20140;-72
2023/09/08 08:00:42;;;;;;;9.07;7.88;;;23.30;82.90;;;;;;5045529;28;20053;-68
2023/09/08 08:03:09;;;;;;;9.02;7.38;;;23.20;81.90;;;;;;5047773;28;20152;-68
2023/09/08 08:05:34;;;;;;;9.85;7.30;;;23.20;81.10;;;;;;5043447;28;20052;-67
2023/09/08 08:08:00;;;;;;;8.48;7.45;;;23.20;81.10;;;;;;5035991;28;20129;-68
2023/09/08 08:10:25;;;;;;;9.55;7.50;;;23.30;80.60;;;;;;5037556;28;20037;-69
2023/09/08 08:12:51;;;;;;;9.45;7.40;;;23.30;80.50;;;;;;5050657;28;20033;-68
2023/09/08 08:15:21;;;;;;;8.90;7.00;;;23.40;80.30;;;;;;5041529;28;20080;-68
2023/09/08 08:17:46;;;;;;;11.40;8.35;;;23.40;80.80;;;;;;5044988;28;20452;-69
2023/09/08 08:20:17;;;;;;;8.60;7.10;;;23.50;79.90;;;;;;5049932;28;20045;-68
2023/09/08 08:22:43;;;;;;;;;;;23.70;79.30;;;;;;5046272;28;20127;-69
2023/09/08 08:25:08;;;;;;;9.88;6.65;;;24.00;79.40;;;;;;5044896;28;20019;-69
2023/09/08 08:27:34;;;;;;;12.15;7.38;;;24.60;76.80;;;;;;5045412;28;20045;-69
2023/09/08 08:30:00;;;;;;;11.05;7.05;;;25.20;74.60;;;;;;5043746;28;20029;-69
2023/09/08 08:32:27;;;;;;;8.57;6.40;;;25.80;73.00;;;;;;5048603;28;20033;-69
2023/09/08 08:34:53;;;;;;;9.15;6.65;;;26.50;71.80;;;;;;5044098;28;20044;-68
2023/09/08 08:37:18;;;;;;;8.38;6.93;;;27.10;70.30;;;;;;5032937;28;20370;-68
2023/09/08 08:39:44;;;;;;;9.50;7.07;;;27.60;68.50;;;;;;5047139;28;20107;-70
2023/09/08 08:42:10;;;;;;;10.70;7.00;;;27.90;67.80;;;;;;5045053;28;20036;-68
2023/09/08 08:44:38;;;;;;;9.27;6.25;;;28.30;66.00;;;;;;5041988;28;20056;-69
2023/09/08 08:47:06;;;;;;;7.90;6.00;;;28.50;64.40;;;;;;5044081;28;20044;-69
2023/09/08 08:49:33;;;;;;;6.35;5.65;;;28.90;63.60;;;;;;5048631;28;20033;-69
2023/09/08 08:52:00;;;;;;;10.63;6.07;;;29.00;63.00;;;;;;5046812;28;20186;-67
2023/09/08 08:54:26;;;;;;;5.93;5.25;;;29.50;61.60;;;;;;5049414;28;20065;-67
2023/09/08 08:56:52;;;;;;;7.10;5.13;;;29.00;62.20;;;;;;5049406;28;20051;-67
2023/09/08 08:59:18;;;;;;;6.40;5.80;;;28.60;62.50;;;;;;5045028;28;20226;-67
2023/09/08 09:01:44;;;;;;;7.00;6.15;;;28.10;63.50;;;;;;5040670;28;20153;-68
2023/09/08 09:04:11;;;;;;;7.28;5.63;;;27.70;64.70;;;;;;5046733;28;20387;-67
2023/09/08 09:06:37;;;;;;;8.75;5.93;;;27.50;65.20;;;;;;5047326;28;20029;-67
2023/09/08 09:09:04;;;;;;;7.15;5.75;;;27.40;65.00;;;;;;5047563;28;20051;-66
2023/09/08 09:11:31;;;;;;;8.13;5.28;;;27.20;65.20;;;;;;5046815;28;20548;-69
2023/09/08 09:13:57;;;;;;;10.02;5.07;;;27.20;65.00;;;;;;5047659;28;20037;-68
2023/09/08 09:16:23;;;;;;;8.57;5.15;;;27.30;64.30;;;;;;5045695;28;20403;-69
2023/09/08 09:18:57;;;;;;;6.68;5.20;;;27.20;63.80;;;;;;5048725;28;20044;-68
2023/09/08 09:21:23;;;;;;;7.95;5.97;;;27.20;64.40;;;;;;5048085;28;20470;-68
2023/09/08 09:23:49;;;;;;;7.82;5.78;;;27.10;64.50;;;;;;5046569;28;20068;-69
2023/09/08 09:26:25;;;;;;;7.50;5.90;;;27.00;64.90;;;;;;5046529;28;20045;-68
2023/09/08 09:28:53;;;;;;;8.93;5.70;;;26.80;66.30;;;;;;5047125;28;20044;-69
2023/09/08 09:31:22;;;;;;;42.90;7.38;;;26.70;65.70;;;;;;5047099;28;20073;-69
2023/09/08 09:33:48;;;;;;;14.75;4.90;;;26.50;61.80;;;;;;5030630;28;20136;-68
2023/09/08 09:36:20;;;;;;;6.40;3.90;;;26.60;61.60;;;;;;5046246;28;20048;-71
2023/09/08 09:38:47;;;;;;;6.97;4.15;;;26.50;59.10;;;;;;5048691;28;20041;-68
2023/09/08 09:41:12;;;;;;;7.97;3.92;;;26.70;59.70;;;;;;5012998;28;20129;-69
2023/09/08 09:43:38;;;;;;;6.10;4.35;;;26.60;59.40;;;;;;5043095;28;20495;-68
2023/09/08 09:46:08;;;;;;;5.88;4.60;;;26.60;59.20;;;;;;5042735;28;20083;-68
2023/09/08 09:48:34;;;;;;;;;;;26.60;59.20;;;;;;5044087;28;20055;-70
2023/09/08 09:51:16;;;;;;;8.48;4.05;;;26.50;58.40;;;;;;5043121;28;19971;-69
2023/09/08 09:53:42;;;;;;;5.22;4.50;;;26.70;56.60;;;;;;5027388;28;20492;-67
2023/09/08 09:56:09;;;;;;;5.20;3.92;;;26.60;56.50;;;;;;5043630;28;20479;-67
2023/09/08 09:58:36;;;;;;;5.60;4.05;;;26.80;56.50;;;;;;5030095;28;20203;-70
2023/09/08 10:01:03;;;;;;;6.70;4.25;;;26.80;56.30;;;;;;5042508;28;20048;-68
2023/09/08 10:03:30;;;;;;;5.95;4.25;;;26.80;56.30;;;;;;5049050;28;20053;-67
2023/09/08 10:05:56;;;;;;;6.05;3.85;;;26.80;57.00;;;;;;5046649;28;20120;-68
2023/09/08 10:08:22;;;;;;;5.20;4.28;;;26.90;56.60;;;;;;5046626;28;20094;-68
2023/09/08 10:10:50;;;;;;;6.47;4.80;;;27.00;56.00;;;;;;5046008;28;20079;-68
2023/09/08 10:13:23;;;;;;;6.72;4.43;;;27.00;56.20;;;;;;5046047;28;20357;-68
2023/09/08 10:15:49;;;;;;;5.63;4.20;;;27.00;55.60;;;;;;5044807;28;20319;-67
2023/09/08 10:18:19;;;;;;;5.93;4.35;;;27.00;56.20;;;;;;5045779;28;20062;-67
2023/09/08 10:20:46;;;;;;;5.57;4.32;;;27.10;56.50;;;;;;5045691;28;20785;-68
2023/09/08 10:23:20;;;;;;;5.82;4.00;;;27.10;56.10;;;;;;5044457;28;20045;-68
2023/09/08 10:25:53;;;;;;;5.38;4.20;;;27.30;56.60;;;;;;5029129;28;20051;-68
2023/09/08 10:28:19;;;;;;;5.47;3.90;;;27.20;56.00;;;;;;5043987;28;20033;-67
2023/09/08 10:30:45;;;;;;;7.65;4.32;;;27.30;56.00;;;;;;5042847;28;20098;-67
2023/09/08 10:33:12;;;;;;;6.60;4.25;;;27.40;55.80;;;;;;5040885;28;20051;-68
2023/09/08 10:35:38;;;;;;;5.15;4.20;;;27.40;56.30;;;;;;5047818;28;20055;-68
2023/09/08 10:38:27;;;;;;;6.97;3.75;;;27.40;55.80;;;;;;5037318;28;20045;-68
2023/09/08 10:41:14;;;;;;;6.05;4.68;;;27.50;53.60;;;;;;5046583;28;20051;-68
2023/09/08 10:43:39;;;;;;;4.60;4.07;;;27.20;52.90;;;;;;5039771;28;20057;-67
2023/09/08 10:46:21;;;;;;;6.38;4.20;;;27.40;55.10;;;;;;5040122;28;20103;-68
2023/09/08 10:48:47;;;;;;;5.68;4.75;;;27.50;53.50;;;;;;5041786;28;20059;-67
2023/09/08 10:51:17;;;;;;;5.18;4.00;;;27.50;54.40;;;;;;5047169;28;20447;-67
2023/09/08 10:53:46;;;;;;;;;;;27.40;54.70;;;;;;5042896;28;20132;-68
2023/09/08 10:56:11;;;;;;;8.07;4.53;;;27.50;54.20;;;;;;5043838;28;19977;-67
2023/09/08 10:58:39;;;;;;;5.30;4.25;;;27.50;54.90;;;;;;5042734;28;20643;-68
2023/09/08 11:01:05;;;;;;;6.47;4.40;;;27.50;54.40;;;;;;5044613;28;20067;-69
2023/09/08 11:03:37;;;;;;;7.53;4.20;;;27.50;54.90;;;;;;5042074;28;20080;-67
2023/09/08 11:06:03;;;;;;;4.72;4.20;;;27.60;53.20;;;;;;5045919;28;20109;-69
2023/09/08 11:08:29;;;;;;;9.57;4.47;;;27.60;53.50;;;;;;5044231;28;20048;-68
2023/09/08 11:10:55;;;;;;;4.72;3.97;;;27.70;53.70;;;;;;5028023;28;20033;-67
2023/09/08 11:13:21;;;;;;;6.82;4.68;;;27.70;52.80;;;;;;5043409;28;20032;-69
2023/09/08 11:15:47;;;;;;;6.78;4.15;;;27.70;53.20;;;;;;5041305;28;20120;-68
2023/09/08 11:18:13;;;;;;;5.22;3.90;;;27.70;52.60;;;;;;5035501;28;20041;-68
2023/09/08 11:20:38;;;;;;;5.07;4.57;;;27.70;52.30;;;;;;5033580;28;20037;-67
2023/09/08 11:23:05;;;;;;;8.48;4.30;;;27.80;52.90;;;;;;5046618;28;20043;-67
2023/09/08 11:25:33;;;;;;;7.10;3.95;;;27.80;52.80;;;;;;5044527;28;20063;-68
2023/09/08 11:27:58;;;;;;;4.90;4.13;;;27.90;52.40;;;;;;5042900;28;20204;-67
2023/09/08 11:30:25;;;;;;;6.22;4.15;;;27.90;52.00;;;;;;5037585;28;20600;-70
2023/09/08 11:32:50;;;;;;;6.05;4.07;;;28.00;50.30;;;;;;5046613;28;20054;-68
2023/09/08 11:35:20;;;;;;;6.40;3.90;;;28.00;50.60;;;;;;5048534;28;20128;-67
2023/09/08 11:37:46;;;;;;;6.93;3.65;;;28.10;51.70;;;;;;5046975;28;20045;-67
2023/09/08 11:40:13;;;;;;;6.82;4.00;;;28.10;51.70;;;;;;5030895;28;20436;-67
2023/09/08 11:42:44;;;;;;;5.30;3.83;;;28.20;50.90;;;;;;5051436;28;20044;-68
2023/09/08 11:45:21;;;;;;;5.10;4.22;;;28.20;51.40;;;;;;5047069;28;20057;-67
2023/09/08 11:47:47;;;;;;;6.80;3.97;;;28.30;51.70;;;;;;5051921;28;20048;-67
2023/09/08 11:50:15;;;;;;;6.10;4.20;;;28.30;51.30;;;;;;5048709;28;20037;-67
2023/09/08 11:52:49;;;;;;;6.25;4.10;;;28.30;51.20;;;;;;5049721;28;20576;-67
2023/09/08 11:55:15;;;;;;;6.07;4.18;;;28.30;50.90;;;;;;5051114;28;20371;-68
2023/09/08 11:57:43;;;;;;;5.55;4.43;;;28.40;51.30;;;;;;5045243;28;20453;-68
2023/09/08 12:00:12;;;;;;;5.15;4.03;;;28.40;51.30;;;;;;5046777;28;20048;-67
2023/09/08 12:02:38;;;;;;;5.55;3.85;;;28.40;50.90;;;;;;5031580;28;20075;-67
2023/09/08 12:05:04;;;;;;;4.80;4.03;;;28.50;51.30;;;;;;5043791;28;20059;-67
2023/09/08 12:07:30;;;;;;;5.50;3.92;;;28.50;51.00;;;;;;5029349;28;20931;-67
2023/09/08 12:09:55;;;;;;;6.80;4.45;;;28.50;50.70;;;;;;5038991;28;20048;-67
2023/09/08 12:12:21;;;;;;;10.93;4.68;;;28.60;50.90;;;;;;5051644;28;20071;-66
2023/09/08 12:14:46;;;;;;;7.57;4.18;;;28.60;51.80;;;;;;5040238;28;20403;-67
2023/09/08 12:17:16;;;;;;;4.30;3.70;;;28.60;50.80;;;;;;5047486;28;20124;-67
2023/09/08 12:19:42;;;;;;;5.25;3.50;;;28.70;50.40;;;;;;5045260;28;20043;-67
2023/09/08 12:22:10;;;;;;;7.15;4.20;;;28.80;50.40;;;;;;5058083;28;20536;-67
2023/09/08 12:24:55;;;;;;;6.68;4.70;;;28.80;50.50;;;;;;5048580;28;20334;-67
2023/09/08 12:27:21;;;;;;;4.47;3.85;;;29.00;49.40;;;;;;5041165;28;20167;-67
2023/09/08 12:29:56;;;;;;;12.00;4.35;;;29.10;49.60;;;;;;5041150;28;20124;-66
2023/09/08 12:32:23;;;;;;;7.07;4.38;;;29.00;49.20;;;;;;5051319;28;20128;-67